Time;durP1;ratioP1;P1;durP2;ratioP2;P2;SDS_P1;SDS_P2;PMS_P1;PMS_P2;Temp;Humidity;BMP_temperature;BMP_pressure;BME280_temperature;BME280_humidity;BME280_pressure;Samples;Min_cycle;Max_cycle;Signal;HPM_P1;HPM_P2
2021/12/01 00:00:08;;;;;;;8.03;7.23;;;;;;;;;;5007626;28;20179;-55
2021/12/01 00:02:35;;;;;;;7.53;6.70;;;;;;;;;;5008003;28;20183;-53
2021/12/01 00:05:01;;;;;;;14.53;7.10;;;;;;;;;;5005843;28;20191;-56
2021/12/01 00:07:27;;;;;;;5.80;5.30;;;;;;;;;;5005492;28;20214;-55
2021/12/01 00:09:57;;;;;;;5.57;5.07;;;;;;;;;;5000019;28;20206;-54
2021/12/01 00:12:23;;;;;;;6.30;4.97;;;;;;;;;;4991760;28;20178;-55
2021/12/01 00:14:56;;;;;;;5.33;4.83;;;;;;;;;;4998949;28;20190;-56
2021/12/01 00:17:25;;;;;;;5.33;4.83;;;;;;;;;;5008811;28;20173;-55
2021/12/01 00:19:52;;;;;;;5.83;5.33;;;;;;;;;;5008980;28;20183;-55
2021/12/01 00:22:18;;;;;;;4.00;3.70;;;;;;;;;;4988548;28;20253;-55
2021/12/01 00:24:45;;;;;;;5.00;4.60;;;;;;;;;;5018933;28;20527;-54
2021/12/01 00:27:11;;;;;;;4.13;3.83;;;;;;;;;;4994130;28;20649;-55
2021/12/01 00:29:38;;;;;;;4.70;4.30;;;;;;;;;;5008342;28;20214;-55
2021/12/01 00:32:05;;;;;;;4.53;4.13;;;;;;;;;;5007355;28;20560;-54
2021/12/01 00:34:32;;;;;;;3.87;3.57;;;;;;;;;;5001556;28;20269;-55
2021/12/01 00:36:59;;;;;;;4.33;3.93;;;;;;;;;;4997237;28;20179;-55
2021/12/01 00:39:25;;;;;;;4.70;4.30;;;;;;;;;;5008948;28;20265;-53
2021/12/01 00:41:52;;;;;;;5.10;3.83;;;;;;;;;;5007982;28;20182;-55
2021/12/01 00:44:19;;;;;;;3.77;3.40;;;;;;;;;;4974457;28;20193;-55
2021/12/01 00:46:55;;;;;;;3.60;3.30;;;;;;;;;;5007645;28;20214;-55
2021/12/01 00:49:21;;;;;;;3.77;3.40;;;;;;;;;;5012422;28;20597;-54
2021/12/01 00:51:47;;;;;;;4.20;3.90;;;;;;;;;;5010532;28;20182;-56
2021/12/01 00:54:14;;;;;;;4.37;3.57;;;;;;;;;;5028981;28;20174;-55
2021/12/01 00:56:40;;;;;;;3.80;3.23;;;;;;;;;;5022023;28;20232;-54
2021/12/01 00:59:07;;;;;;;3.73;3.43;;;;;;;;;;5010521;28;20268;-54
2021/12/01 01:01:33;;;;;;;3.30;3.10;;;;;;;;;;5010118;28;20530;-55
2021/12/01 01:03:59;;;;;;;3.83;2.77;;;;;;;;;;5027979;28;20201;-55
2021/12/01 01:06:26;;;;;;;2.50;2.30;;;;;;;;;;5028985;28;20194;-54
2021/12/01 01:08:52;;;;;;;2.30;2.20;;;;;;;;;;5020992;28;20178;-55
2021/12/01 01:16:52;;;;;;;1.83;1.70;;;;;;;;;;5026125;28;20341;-54
2021/12/01 01:19:18;;;;;;;2.37;2.03;;;;;;;;;;5004826;28;20185;-55
2021/12/01 01:21:48;;;;;;;1.87;1.77;;;;;;;;;;5027011;28;20186;-54
2021/12/01 01:24:18;;;;;;;1.70;1.50;;;;;;;;;;5010616;28;20213;-54
2021/12/01 01:26:45;;;;;;;1.60;1.50;;;;;;;;;;5011569;28;20212;-53
2021/12/01 01:29:11;;;;;;;2.63;1.80;;;;;;;;;;5027403;28;20676;-53
2021/12/01 01:31:38;;;;;;;1.60;1.50;;;;;;;;;;5021144;28;20189;-54
2021/12/01 01:34:05;;;;;;;1.60;1.50;;;;;;;;;;5012656;28;20185;-54
2021/12/01 01:36:31;;;;;;;1.70;1.60;;;;;;;;;;5009980;28;20182;-54
2021/12/01 01:38:58;;;;;;;2.03;1.93;;;;;;;;;;5010307;28;20182;-53
2021/12/01 01:41:24;;;;;;;1.77;1.63;;;;;;;;;;5010541;28;20219;-54
2021/12/01 01:43:51;;;;;;;1.97;1.50;;;;;;;;;;5017623;28;20183;-54
2021/12/01 01:46:18;;;;;;;1.50;1.40;;;;;;;;;;5026140;28;20178;-54
2021/12/01 01:48:47;;;;;;;1.73;1.47;;;;;;;;;;5009078;28;20192;-55
2021/12/01 01:51:14;;;;;;;2.40;1.50;;;;;;;;;;5009386;28;20304;-54
2021/12/01 01:53:40;;;;;;;1.98;1.83;;;;;;;;;;5008600;28;20435;-54
2021/12/01 01:56:07;;;;;;;1.60;1.50;;;;;;;;;;5030241;28;20243;-54
2021/12/01 01:58:33;;;;;;;1.30;1.20;;;;;;;;;;5010564;28;20189;-54
2021/12/01 02:01:08;;;;;;;1.40;1.30;;;;;;;;;;5031033;28;20542;-54
2021/12/01 02:03:45;;;;;;;1.83;1.40;;;;;;;;;;5028069;28;20246;-55
2021/12/01 02:06:13;;;;;;;2.23;1.57;;;;;;;;;;5032446;28;20583;-55
2021/12/01 02:08:41;;;;;;;1.60;1.50;;;;;;;;;;5010600;28;20241;-54
2021/12/01 02:11:13;;;;;;;1.40;1.30;;;;;;;;;;5016141;28;20201;-55
2021/12/01 02:13:40;;;;;;;1.87;1.57;;;;;;;;;;5022613;28;20169;-55
2021/12/01 02:16:06;;;;;;;1.47;1.37;;;;;;;;;;5031866;28;20262;-54
2021/12/01 02:18:32;;;;;;;1.97;1.60;;;;;;;;;;5031388;28;20178;-54
2021/12/01 02:21:13;;;;;;;1.77;1.67;;;;;;;;;;5012702;28;20319;-55
2021/12/01 02:23:44;;;;;;;1.50;1.40;;;;;;;;;;5013026;28;20546;-54
2021/12/01 02:26:11;;;;;;;1.73;1.60;;;;;;;;;;5013604;28;20736;-54
2021/12/01 02:28:38;;;;;;;1.83;1.40;;;;;;;;;;5017755;28;20679;-54
2021/12/01 02:31:05;;;;;;;1.70;1.60;;;;;;;;;;5031635;28;20201;-54
2021/12/01 02:33:31;;;;;;;1.50;1.40;;;;;;;;;;5015167;28;20181;-54
2021/12/01 02:35:58;;;;;;;1.73;1.37;;;;;;;;;;5031487;28;20305;-54
2021/12/01 02:38:24;;;;;;;2.17;1.60;;;;;;;;;;5030550;28;20260;-54
2021/12/01 02:40:51;;;;;;;1.63;1.53;;;;;;;;;;5013602;28;20637;-53
2021/12/01 02:43:17;;;;;;;1.70;1.60;;;;;;;;;;5024628;28;20186;-54
2021/12/01 02:45:43;;;;;;;3.07;1.70;;;;;;;;;;5030768;28;20180;-54
2021/12/01 02:48:13;;;;;;;1.70;1.60;;;;;;;;;;5029369;28;20597;-55
2021/12/01 02:50:43;;;;;;;3.23;1.40;;;;;;;;;;5019384;28;20237;-55
2021/12/01 02:53:10;;;;;;;1.90;1.70;;;;;;;;;;5010559;28;20739;-54
2021/12/01 02:55:40;;;;;;;2.63;2.13;;;;;;;;;;4981194;28;20605;-54
2021/12/01 02:58:07;;;;;;;2.33;2.10;;;;;;;;;;5010269;28;20690;-55
2021/12/01 03:00:34;;;;;;;1.70;1.60;;;;;;;;;;5004761;28;20463;-54
2021/12/01 03:03:01;;;;;;;2.47;2.17;;;;;;;;;;5017459;28;20226;-54
2021/12/01 03:05:27;;;;;;;1.93;1.83;;;;;;;;;;5019360;28;20174;-54
2021/12/01 03:07:53;;;;;;;4.10;2.07;;;;;;;;;;5021048;28;20181;-53
2021/12/01 03:10:19;;;;;;;2.60;2.30;;;;;;;;;;4997356;28;20563;-54
2021/12/01 03:12:46;;;;;;;2.57;2.37;;;;;;;;;;5019053;28;20171;-53
2021/12/01 03:15:16;;;;;;;2.93;2.30;;;;;;;;;;5011753;28;20182;-54
2021/12/01 03:17:42;;;;;;;2.83;2.63;;;;;;;;;;5012876;28;20540;-54
2021/12/01 03:20:10;;;;;;;2.87;2.57;;;;;;;;;;5010753;28;20190;-54
2021/12/01 03:22:36;;;;;;;2.70;2.50;;;;;;;;;;5009336;28;20537;-55
2021/12/01 03:25:08;;;;;;;3.10;2.90;;;;;;;;;;4996136;28;20182;-55
2021/12/01 03:27:36;;;;;;;2.80;2.60;;;;;;;;;;5004569;28;20320;-55
2021/12/01 03:30:02;;;;;;;3.10;2.80;;;;;;;;;;5004454;28;20277;-53
2021/12/01 03:32:28;;;;;;;2.93;2.70;;;;;;;;;;5014999;28;20193;-53
2021/12/01 03:34:55;;;;;;;4.13;3.40;;;;;;;;;;5011741;28;20187;-55
2021/12/01 03:37:21;;;;;;;4.03;3.63;;;;;;;;;;5002374;28;20266;-56
2021/12/01 03:39:48;;;;;;;3.67;3.30;;;;;;;;;;5009512;28;20186;-54
2021/12/01 03:42:17;;;;;;;3.50;3.20;;;;;;;;;;5025385;28;20735;-53
2021/12/01 03:44:43;;;;;;;3.63;3.33;;;;;;;;;;5014194;28;20637;-54
2021/12/01 03:47:09;;;;;;;4.20;3.80;;;;;;;;;;5015867;28;20556;-54
2021/12/01 03:49:35;;;;;;;5.50;4.20;;;;;;;;;;4957646;28;1442094;-54
2021/12/01 03:52:02;;;;;;;4.73;3.87;;;;;;;;;;4999523;28;20635;-54
2021/12/01 03:54:28;;;;;;;4.83;3.97;;;;;;;;;;4993147;28;20190;-55
2021/12/01 03:56:55;;;;;;;5.03;4.53;;;;;;;;;;5004470;28;20209;-54
2021/12/01 03:59:21;;;;;;;3.80;3.40;;;;;;;;;;5015219;28;20174;-54
2021/12/01 04:01:48;;;;;;;4.60;4.13;;;;;;;;;;4990886;28;20248;-54
2021/12/01 04:04:14;;;;;;;5.00;4.57;;;;;;;;;;5009928;28;20229;-54
2021/12/01 04:06:41;;;;;;;4.00;3.70;;;;;;;;;;5001063;28;20269;-55
2021/12/01 04:09:07;;;;;;;4.60;4.17;;;;;;;;;;4993468;28;20213;-55
2021/12/01 04:11:37;;;;;;;5.17;4.67;;;;;;;;;;4995208;28;20668;-55
2021/12/01 04:14:04;;;;;;;5.40;4.90;;;;;;;;;;5009893;28;20233;-55
2021/12/01 04:16:30;;;;;;;6.30;5.73;;;;;;;;;;4990391;28;20597;-55
2021/12/01 04:18:56;;;;;;;5.23;4.77;;;;;;;;;;5008401;28;20183;-55
2021/12/01 04:21:24;;;;;;;5.00;4.50;;;;;;;;;;5001753;28;20225;-55
2021/12/01 04:23:50;;;;;;;6.50;5.90;;;;;;;;;;5013216;28;20182;-55
2021/12/01 04:26:21;;;;;;;5.67;4.80;;;;;;;;;;5009184;28;20186;-54
2021/12/01 04:28:47;;;;;;;5.57;5.00;;;;;;;;;;5008503;28;20225;-55
2021/12/01 04:31:13;;;;;;;6.07;5.57;;;;;;;;;;5018405;28;20194;-55
2021/12/01 04:33:43;;;;;;;5.77;5.17;;;;;;;;;;4995409;28;20186;-54
2021/12/01 04:36:09;;;;;;;5.30;4.77;;;;;;;;;;5007326;28;20349;-56
2021/12/01 04:38:36;;;;;;;5.33;4.83;;;;;;;;;;5009108;28;20265;-54
2021/12/01 04:41:08;;;;;;;5.93;5.07;;;;;;;;;;4991872;28;20186;-54
2021/12/01 04:43:34;;;;;;;5.20;4.70;;;;;;;;;;4990480;28;20642;-55
2021/12/01 04:46:00;;;;;;;6.87;4.60;;;;;;;;;;4986075;28;20197;-55
2021/12/01 04:48:27;;;;;;;5.03;4.53;;;;;;;;;;5006957;28;20668;-55
2021/12/01 04:50:54;;;;;;;4.63;4.23;;;;;;;;;;4982606;28;20210;-55
2021/12/01 04:53:21;;;;;;;4.50;4.10;;;;;;;;;;5001423;28;20217;-55
2021/12/01 04:55:47;;;;;;;4.73;4.33;;;;;;;;;;4991263;28;20382;-54
2021/12/01 04:58:13;;;;;;;5.20;3.93;;;;;;;;;;5006517;28;20190;-55
2021/12/01 05:00:39;;;;;;;4.23;3.73;;;;;;;;;;4996531;28;20193;-55
2021/12/01 05:03:06;;;;;;;5.57;4.67;;;;;;;;;;4991778;28;20186;-54
2021/12/01 05:05:32;;;;;;;5.07;4.23;;;;;;;;;;4991934;28;20513;-54
2021/12/01 05:07:59;;;;;;;4.47;4.07;;;;;;;;;;5006155;28;20572;-54
2021/12/01 05:10:25;;;;;;;5.37;4.57;;;;;;;;;;5000653;28;20255;-53
2021/12/01 05:12:52;;;;;;;4.20;3.80;;;;;;;;;;5001814;28;20273;-55
2021/12/01 05:15:18;;;;;;;3.97;3.67;;;;;;;;;;5005702;28;20601;-55
2021/12/01 05:17:44;;;;;;;4.13;3.73;;;;;;;;;;5005668;28;20181;-54
2021/12/01 05:20:11;;;;;;;4.10;3.70;;;;;;;;;;4986585;28;20218;-53
2021/12/01 05:22:38;;;;;;;7.27;3.93;;;;;;;;;;5014151;28;20189;-55
2021/12/01 05:25:05;;;;;;;4.50;3.67;;;;;;;;;;5001630;28;20266;-55
2021/12/01 05:27:31;;;;;;;4.40;3.63;;;;;;;;;;5005355;28;20277;-54
2021/12/01 05:29:58;;;;;;;3.83;3.53;;;;;;;;;;4988686;28;20234;-54
2021/12/01 05:32:24;;;;;;;3.93;3.13;;;;;;;;;;4999695;28;20179;-53
2021/12/01 05:34:51;;;;;;;4.03;3.03;;;;;;;;;;5000860;28;20213;-54
2021/12/01 05:37:17;;;;;;;5.37;3.93;;;;;;;;;;5005039;28;20692;-55
2021/12/01 05:39:45;;;;;;;4.90;3.20;;;;;;;;;;4985697;28;20183;-53
2021/12/01 05:42:12;;;;;;;3.40;3.10;;;;;;;;;;5000636;28;20188;-55
2021/12/01 05:44:39;;;;;;;4.00;3.10;;;;;;;;;;4982365;28;20345;-55
2021/12/01 05:47:08;;;;;;;2.87;2.63;;;;;;;;;;4984294;28;20711;-55
2021/12/01 05:49:41;;;;;;;3.27;2.73;;;;;;;;;;4986516;28;20292;-54
2021/12/01 05:52:07;;;;;;;3.10;2.73;;;;;;;;;;4986166;28;20178;-55
2021/12/01 05:54:34;;;;;;;3.37;2.83;;;;;;;;;;4990133;28;20182;-57
2021/12/01 05:57:00;;;;;;;3.70;2.93;;;;;;;;;;4990925;28;20214;-56
2021/12/01 05:59:26;;;;;;;4.33;2.70;;;;;;;;;;5005070;28;20553;-54
2021/12/01 06:01:53;;;;;;;2.97;2.70;;;;;;;;;;5002967;28;20228;-56
2021/12/01 06:04:19;;;;;;;2.80;2.60;;;;;;;;;;4990738;28;20209;-55
2021/12/01 06:06:45;;;;;;;2.53;2.33;;;;;;;;;;5008452;28;20531;-54
2021/12/01 06:09:12;;;;;;;3.57;2.93;;;;;;;;;;4989939;28;20336;-55
2021/12/01 06:11:38;;;;;;;4.37;2.10;;;;;;;;;;4991937;28;20665;-55
2021/12/01 06:14:04;;;;;;;2.70;2.50;;;;;;;;;;5000973;28;20568;-55
2021/12/01 06:16:30;;;;;;;2.77;2.30;;;;;;;;;;5006633;28;20182;-55
2021/12/01 06:18:57;;;;;;;2.33;2.00;;;;;;;;;;4989998;28;20232;-55
2021/12/01 06:21:23;;;;;;;5.13;2.27;;;;;;;;;;5008124;28;20178;-56
2021/12/01 06:23:49;;;;;;;2.40;2.20;;;;;;;;;;5010283;28;20182;-56
2021/12/01 06:26:16;;;;;;;2.13;1.93;;;;;;;;;;4990062;28;20193;-55
2021/12/01 06:28:42;;;;;;;2.07;1.87;;;;;;;;;;4996217;28;20597;-55
2021/12/01 06:31:09;;;;;;;1.80;1.70;;;;;;;;;;4979832;28;20207;-56
2021/12/01 06:33:36;;;;;;;2.10;1.90;;;;;;;;;;5003292;28;20224;-56
2021/12/01 06:36:03;;;;;;;1.83;1.73;;;;;;;;;;4990501;28;20175;-55
2021/12/01 06:38:29;;;;;;;3.97;2.40;;;;;;;;;;4989354;28;20273;-56
2021/12/01 06:40:56;;;;;;;1.97;1.77;;;;;;;;;;5002945;28;20186;-56
2021/12/01 06:43:22;;;;;;;2.93;1.80;;;;;;;;;;4992979;28;20680;-55
2021/12/01 06:45:49;;;;;;;2.07;1.87;;;;;;;;;;4998971;28;20699;-54
2021/12/01 06:48:15;;;;;;;1.90;1.80;;;;;;;;;;5010354;28;20174;-56
2021/12/01 06:50:45;;;;;;;2.87;2.07;;;;;;;;;;4978154;28;20242;-56
2021/12/01 06:53:11;;;;;;;2.47;1.87;;;;;;;;;;5011075;28;20178;-56
2021/12/01 06:55:37;;;;;;;2.30;1.90;;;;;;;;;;4993990;28;20179;-55
2021/12/01 06:58:04;;;;;;;2.07;1.87;;;;;;;;;;4992567;28;20265;-56
2021/12/01 07:00:30;;;;;;;2.20;2.00;;;;;;;;;;5009264;28;20186;-56
2021/12/01 07:02:59;;;;;;;1.60;1.50;;;;;;;;;;4992336;28;20224;-56
2021/12/01 07:05:26;;;;;;;1.83;1.60;;;;;;;;;;5019813;28;20193;-57
2021/12/01 07:07:53;;;;;;;1.73;1.63;;;;;;;;;;5003295;28;20183;-55
2021/12/01 07:10:19;;;;;;;1.70;1.60;;;;;;;;;;4993030;28;20218;-56
2021/12/01 07:12:46;;;;;;;1.90;1.70;;;;;;;;;;4993210;28;20524;-56
2021/12/01 07:15:13;;;;;;;2.13;1.67;;;;;;;;;;4992696;28;20725;-54
2021/12/01 07:17:39;;;;;;;1.70;1.40;;;;;;;;;;4998455;28;20174;-55
2021/12/01 07:20:06;;;;;;;1.60;1.50;;;;;;;;;;4993290;28;20740;-56
2021/12/01 07:22:33;;;;;;;1.60;1.50;;;;;;;;;;4998118;28;20210;-55
2021/12/01 07:24:59;;;;;;;3.03;1.60;;;;;;;;;;4990850;28;20175;-55
2021/12/01 07:27:25;;;;;;;1.60;1.40;;;;;;;;;;5020510;28;20183;-56
2021/12/01 07:29:51;;;;;;;2.40;1.47;;;;;;;;;;4983237;28;20202;-56
2021/12/01 07:32:17;;;;;;;1.40;1.30;;;;;;;;;;5009299;28;20186;-53
2021/12/01 07:34:43;;;;;;;1.17;1.00;;;;;;;;;;5010667;28;20221;-55
2021/12/01 07:37:10;;;;;;;1.20;1.10;;;;;;;;;;5010560;28;20752;-56
2021/12/01 07:39:36;;;;;;;1.30;1.20;;;;;;;;;;5010906;28;20252;-56
2021/12/01 07:42:04;;;;;;;1.60;1.10;;;;;;;;;;4993807;28;20198;-56
2021/12/01 07:44:30;;;;;;;1.33;1.20;;;;;;;;;;5010043;28;20190;-56
2021/12/01 07:46:56;;;;;;;1.10;1.10;;;;;;;;;;5010086;28;20281;-56
2021/12/01 07:49:22;;;;;;;1.77;1.17;;;;;;;;;;5011298;28;20214;-56
2021/12/01 07:51:48;;;;;;;1.27;1.17;;;;;;;;;;5028428;28;20178;-56
2021/12/01 07:54:14;;;;;;;1.30;1.20;;;;;;;;;;5028307;28;20181;-55
2021/12/01 07:56:40;;;;;;;1.23;1.13;;;;;;;;;;5010097;28;20391;-56
2021/12/01 07:59:06;;;;;;;1.20;1.10;;;;;;;;;;5043002;28;20406;-56
2021/12/01 08:01:35;;;;;;;1.55;1.20;;;;;;;;;;5027989;28;20387;-56
2021/12/01 08:04:01;;;;;;;1.88;1.10;;;;;;;;;;5022800;28;20427;-56
2021/12/01 08:06:30;;;;;;;2.20;1.30;;;;;;;;;;5028494;28;20953;-55
2021/12/01 08:09:00;;;;;;;1.50;1.20;;;;;;;;;;5043532;28;20553;-55
2021/12/01 08:11:27;;;;;;;1.40;1.30;;;;;;;;;;5007833;28;20502;-55
2021/12/01 08:13:53;;;;;;;1.20;1.10;;;;;;;;;;5010712;28;21026;-56
2021/12/01 08:16:20;;;;;;;1.35;1.20;;;;;;;;;;5004573;28;20401;-55
2021/12/01 08:18:51;;;;;;;1.27;1.10;;;;;;;;;;5011671;28;20177;-56
2021/12/01 08:21:17;;;;;;;0.80;0.80;;;;;;;;;;5029381;28;20174;-55
2021/12/01 08:23:43;;;;;;;0.63;0.63;;;;;;;;;;5029550;28;20190;-55
2021/12/01 08:26:10;;;;;;;1.10;1.00;;;;;;;;;;5027397;28;20186;-55
2021/12/01 08:28:36;;;;;;;1.10;1.00;;;;;;;;;;5008905;28;20679;-55
2021/12/01 08:31:02;;;;;;;1.07;1.00;;;;;;;;;;5014302;28;20198;-55
2021/12/01 08:33:29;;;;;;;1.13;1.03;;;;;;;;;;5011825;28;20209;-53
2021/12/01 08:35:55;;;;;;;1.00;0.90;;;;;;;;;;5029130;28;20235;-54
2021/12/01 08:38:21;;;;;;;1.10;1.00;;;;;;;;;;5006054;28;20696;-55
2021/12/01 08:40:48;;;;;;;0.80;0.80;;;;;;;;;;5011196;28;20238;-55
2021/12/01 08:43:14;;;;;;;2.03;0.90;;;;;;;;;;5016742;28;20681;-53
2021/12/01 08:45:40;;;;;;;0.90;0.90;;;;;;;;;;5015269;28;20182;-56
2021/12/01 08:48:07;;;;;;;0.87;0.87;;;;;;;;;;5026551;28;20185;-55
2021/12/01 08:50:34;;;;;;;0.80;0.80;;;;;;;;;;5023803;28;20222;-56
2021/12/01 08:53:00;;;;;;;0.67;0.67;;;;;;;;;;5000518;28;20522;-55
2021/12/01 08:55:27;;;;;;;1.60;1.00;;;;;;;;;;4992319;28;20591;-56
2021/12/01 08:57:53;;;;;;;0.63;0.63;;;;;;;;;;4995900;28;20179;-55
2021/12/01 09:00:21;;;;;;;1.00;1.00;;;;;;;;;;5011295;28;20669;-55
2021/12/01 09:02:47;;;;;;;0.80;0.80;;;;;;;;;;5005444;28;20212;-55
2021/12/01 09:05:14;;;;;;;1.00;1.00;;;;;;;;;;4999668;28;20257;-56
2021/12/01 09:07:40;;;;;;;0.80;0.80;;;;;;;;;;5003536;28;20189;-56
2021/12/01 09:10:07;;;;;;;0.80;0.80;;;;;;;;;;5007905;28;20317;-56
2021/12/01 09:12:34;;;;;;;0.67;0.67;;;;;;;;;;5007776;28;20630;-56
2021/12/01 09:15:00;;;;;;;0.77;0.73;;;;;;;;;;4997729;28;20225;-56
2021/12/01 09:17:27;;;;;;;0.80;0.80;;;;;;;;;;4993721;28;20178;-56
2021/12/01 09:19:53;;;;;;;1.07;1.03;;;;;;;;;;4995760;28;20235;-55
2021/12/01 09:22:20;;;;;;;0.80;0.80;;;;;;;;;;4983805;28;20194;-55
2021/12/01 09:24:47;;;;;;;1.90;0.83;;;;;;;;;;4991384;28;20547;-55
2021/12/01 09:27:13;;;;;;;0.60;0.60;;;;;;;;;;4999677;28;20589;-56
2021/12/01 09:29:39;;;;;;;0.80;0.80;;;;;;;;;;5005707;28;20935;-54
2021/12/01 09:32:06;;;;;;;1.50;0.80;;;;;;;;;;5002953;28;20186;-55
2021/12/01 09:34:32;;;;;;;0.80;0.80;;;;;;;;;;5011475;28;20201;-56
2021/12/01 09:36:58;;;;;;;0.77;0.77;;;;;;;;;;4998335;28;20175;-54
2021/12/01 09:39:25;;;;;;;1.07;0.73;;;;;;;;;;5028634;28;20169;-55
2021/12/01 09:41:55;;;;;;;0.70;0.70;;;;;;;;;;4991322;28;20637;-56
2021/12/01 09:44:22;;;;;;;0.87;0.87;;;;;;;;;;5005609;28;20554;-56
2021/12/01 09:46:48;;;;;;;0.43;0.43;;;;;;;;;;5008728;28;20174;-56
2021/12/01 09:49:14;;;;;;;0.83;0.80;;;;;;;;;;4996397;28;20174;-55
2021/12/01 09:51:40;;;;;;;0.70;0.70;;;;;;;;;;5027892;28;20180;-55
2021/12/01 09:54:06;;;;;;;0.60;0.60;;;;;;;;;;5010728;28;20170;-55
2021/12/01 09:56:34;;;;;;;0.77;0.77;;;;;;;;;;5010081;28;20198;-56
2021/12/01 09:59:00;;;;;;;0.77;0.77;;;;;;;;;;5006664;28;20638;-55
2021/12/01 10:01:28;;;;;;;0.77;0.77;;;;;;;;;;5009780;28;20175;-56
2021/12/01 10:03:58;;;;;;;0.60;0.60;;;;;;;;;;5027821;28;20668;-55
2021/12/01 10:06:25;;;;;;;1.90;0.93;;;;;;;;;;5015622;28;20710;-55
2021/12/01 10:09:05;;;;;;;0.80;0.57;;;;;;;;;;4994495;28;20178;-55
2021/12/01 10:11:33;;;;;;;1.10;0.80;;;;;;;;;;5009709;28;20197;-55
2021/12/01 10:14:01;;;;;;;0.60;0.60;;;;;;;;;;5009552;28;20173;-55
2021/12/01 10:16:32;;;;;;;0.60;0.53;;;;;;;;;;5008580;28;20584;-55
2021/12/01 10:18:59;;;;;;;0.53;0.53;;;;;;;;;;5031628;28;20200;-55
2021/12/01 10:21:31;;;;;;;0.60;0.60;;;;;;;;;;5031481;28;20750;-55
2021/12/01 10:24:14;;;;;;;0.50;0.50;;;;;;;;;;5013356;28;20248;-56
2021/12/01 10:26:55;;;;;;;2.30;0.80;;;;;;;;;;5013189;28;20212;-53
2021/12/01 10:29:22;;;;;;;0.50;0.50;;;;;;;;;;5030234;28;20181;-54
2021/12/01 10:31:53;;;;;;;1.77;0.63;;;;;;;;;;4997914;28;20232;-55
2021/12/01 10:34:23;;;;;;;1.00;1.00;;;;;;;;;;5030707;28;20665;-55
2021/12/01 10:37:09;;;;;;;0.80;0.80;;;;;;;;;;5013302;28;20182;-54
2021/12/01 10:39:40;;;;;;;1.27;1.17;;;;;;;;;;5025059;28;20296;-55
2021/12/01 10:42:08;;;;;;;0.67;0.60;;;;;;;;;;5031418;28;20784;-56
2021/12/01 10:44:35;;;;;;;0.60;0.60;;;;;;;;;;5012799;28;20713;-55
2021/12/01 10:47:09;;;;;;;0.67;0.67;;;;;;;;;;5029182;28;20580;-55
2021/12/01 10:49:40;;;;;;;0.60;0.60;;;;;;;;;;4994143;28;20228;-56
2021/12/01 10:52:06;;;;;;;4.67;0.80;;;;;;;;;;5023160;28;20713;-55
2021/12/01 10:54:32;;;;;;;0.70;0.70;;;;;;;;;;5012987;28;20269;-56
2021/12/01 10:57:17;;;;;;;0.57;0.57;;;;;;;;;;5013075;28;20300;-55
2021/12/01 10:59:48;;;;;;;0.90;0.90;;;;;;;;;;5011624;28;20659;-56
2021/12/01 11:02:16;;;;;;;0.70;0.70;;;;;;;;;;5012094;28;20189;-55
2021/12/01 11:04:43;;;;;;;1.00;1.00;;;;;;;;;;5031112;28;20608;-55
2021/12/01 11:07:25;;;;;;;0.80;0.80;;;;;;;;;;5026991;28;20602;-56
2021/12/01 11:10:08;;;;;;;0.80;0.80;;;;;;;;;;5013460;28;20568;-54
2021/12/01 11:12:35;;;;;;;1.03;1.03;;;;;;;;;;5012960;28;20189;-55
2021/12/01 11:15:15;;;;;;;0.80;0.80;;;;;;;;;;5030028;28;20177;-55
2021/12/01 11:17:42;;;;;;;0.87;0.87;;;;;;;;;;5001691;28;20181;-54
2021/12/01 11:20:08;;;;;;;1.43;1.20;;;;;;;;;;4997843;28;20218;-55
2021/12/01 11:22:36;;;;;;;1.00;0.90;;;;;;;;;;4999880;28;20205;-55
2021/12/01 11:25:22;;;;;;;1.47;1.17;;;;;;;;;;5012383;28;20193;-55
2021/12/01 11:27:48;;;;;;;0.80;0.80;;;;;;;;;;5029048;28;20213;-54
2021/12/01 11:30:14;;;;;;;2.47;1.20;;;;;;;;;;5030348;28;20574;-55
2021/12/01 11:32:40;;;;;;;1.10;1.00;;;;;;;;;;5010106;28;20189;-55
2021/12/01 11:35:07;;;;;;;1.33;1.03;;;;;;;;;;5027746;28;20188;-55
2021/12/01 11:37:34;;;;;;;1.27;1.17;;;;;;;;;;5025508;28;20239;-56
2021/12/01 11:40:01;;;;;;;1.13;1.07;;;;;;;;;;4992504;28;20660;-56
2021/12/01 11:42:27;;;;;;;1.63;1.03;;;;;;;;;;5003918;28;20226;-56
2021/12/01 11:44:55;;;;;;;1.20;1.10;;;;;;;;;;5017594;28;20218;-55
2021/12/01 11:47:22;;;;;;;1.30;1.20;;;;;;;;;;5011783;28;20185;-55
2021/12/01 11:49:50;;;;;;;1.73;1.63;;;;;;;;;;5029900;28;20236;-54
2021/12/01 11:52:16;;;;;;;4.37;1.90;;;;;;;;;;5029727;28;20217;-56
2021/12/01 11:54:44;;;;;;;3.93;1.40;;;;;;;;;;5015588;28;20190;-55
2021/12/01 11:57:11;;;;;;;3.23;1.83;;;;;;;;;;5013212;28;20662;-56
2021/12/01 11:59:38;;;;;;;2.40;1.93;;;;;;;;;;4993669;28;20198;-56
2021/12/01 12:02:07;;;;;;;2.23;1.73;;;;;;;;;;4994258;28;20197;-56
2021/12/01 12:04:39;;;;;;;2.73;1.80;;;;;;;;;;5010374;28;20199;-55
2021/12/01 12:07:24;;;;;;;2.00;1.80;;;;;;;;;;4995080;28;20186;-57
2021/12/01 12:10:12;;;;;;;2.30;2.10;;;;;;;;;;4994180;28;20202;-55
2021/12/01 12:12:57;;;;;;;2.00;1.90;;;;;;;;;;4994511;28;20186;-54
2021/12/01 12:15:42;;;;;;;2.20;1.73;;;;;;;;;;5013437;28;20189;-56
2021/12/01 12:18:11;;;;;;;2.50;1.90;;;;;;;;;;5011526;28;20584;-55
2021/12/01 12:20:49;;;;;;;3.73;1.67;;;;;;;;;;5012479;28;20674;-55
2021/12/01 12:23:16;;;;;;;1.80;1.47;;;;;;;;;;5022179;28;20189;-55
2021/12/01 12:26:04;;;;;;;2.27;1.70;;;;;;;;;;4993254;28;20210;-54
2021/12/01 12:28:33;;;;;;;3.67;1.67;;;;;;;;;;5008566;28;20184;-57
2021/12/01 12:31:18;;;;;;;2.33;1.50;;;;;;;;;;4998826;28;20202;-56
2021/12/01 12:33:56;;;;;;;2.67;1.90;;;;;;;;;;4990433;28;20189;-57
2021/12/01 12:36:36;;;;;;;2.17;1.50;;;;;;;;;;5021434;28;20178;-56
2021/12/01 12:39:08;;;;;;;3.17;1.60;;;;;;;;;;5016000;28;20558;-55
2021/12/01 12:41:53;;;;;;;3.00;1.93;;;;;;;;;;4992020;28;20236;-56
2021/12/01 12:44:33;;;;;;;3.40;1.70;;;;;;;;;;5003424;28;20194;-56
2021/12/01 12:47:01;;;;;;;3.60;1.70;;;;;;;;;;4992892;28;21622;-56
2021/12/01 12:49:46;;;;;;;2.00;1.60;;;;;;;;;;5005290;28;20201;-56
2021/12/01 12:52:25;;;;;;;5.03;1.60;;;;;;;;;;5010965;28;20648;-57
2021/12/01 12:54:52;;;;;;;3.07;1.50;;;;;;;;;;5029114;28;20162;-56
2021/12/01 12:57:18;;;;;;;4.10;1.60;;;;;;;;;;5023829;28;20214;-54
2021/12/01 12:59:44;;;;;;;5.13;1.80;;;;;;;;;;5025825;28;20181;-54
2021/12/01 13:02:11;;;;;;;3.30;1.80;;;;;;;;;;5006854;28;20201;-56
2021/12/01 13:04:58;;;;;;;3.23;1.30;;;;;;;;;;5010566;28;20188;-55
2021/12/01 13:07:39;;;;;;;4.00;1.43;;;;;;;;;;5011032;28;20192;-55
2021/12/01 13:10:05;;;;;;;2.20;1.00;;;;;;;;;;5028253;28;20212;-56
2021/12/01 13:12:43;;;;;;;4.20;1.40;;;;;;;;;;5010362;28;20655;-56
2021/12/01 13:15:18;;;;;;;3.17;1.10;;;;;;;;;;5012515;28;20239;-55
2021/12/01 13:17:48;;;;;;;3.50;1.60;;;;;;;;;;5024372;28;20268;-57
2021/12/01 13:20:14;;;;;;;2.27;1.30;;;;;;;;;;4997399;28;20280;-56
2021/12/01 13:22:41;;;;;;;1.80;1.03;;;;;;;;;;5010542;28;20674;-57
2021/12/01 13:25:09;;;;;;;2.10;1.30;;;;;;;;;;5011206;28;20236;-57
2021/12/01 13:27:44;;;;;;;2.20;1.23;;;;;;;;;;5013045;28;20197;-54
2021/12/01 13:30:11;;;;;;;3.17;1.37;;;;;;;;;;5027758;28;20209;-55
2021/12/01 13:32:38;;;;;;;2.70;1.47;;;;;;;;;;5031981;28;20188;-55
2021/12/01 13:35:05;;;;;;;1.33;1.10;;;;;;;;;;5010988;28;20255;-55
2021/12/01 13:37:34;;;;;;;2.90;1.40;;;;;;;;;;5037861;28;20173;-55
2021/12/01 13:40:07;;;;;;;2.77;1.50;;;;;;;;;;5010311;28;20193;-54
2021/12/01 13:42:39;;;;;;;3.47;1.43;;;;;;;;;;5027795;28;20619;-55
2021/12/01 13:45:09;;;;;;;2.73;1.10;;;;;;;;;;5011296;28;20268;-55
2021/12/01 13:47:39;;;;;;;2.40;1.40;;;;;;;;;;5008820;28;20467;-55
2021/12/01 13:50:07;;;;;;;3.33;1.17;;;;;;;;;;5026174;28;20230;-54
2021/12/01 13:52:33;;;;;;;4.57;1.70;;;;;;;;;;5021711;28;20667;-54
2021/12/01 13:55:16;;;;;;;2.63;1.30;;;;;;;;;;5039420;28;20554;-54
2021/12/01 13:57:43;;;;;;;2.60;1.20;;;;;;;;;;5020093;28;20189;-52
2021/12/01 14:00:10;;;;;;;4.47;1.70;;;;;;;;;;5031442;28;20235;-53
2021/12/01 14:02:37;;;;;;;2.50;1.20;;;;;;;;;;5020033;28;20185;-54
2021/12/01 14:05:04;;;;;;;2.60;1.30;;;;;;;;;;5014377;28;20189;-53
2021/12/01 14:07:45;;;;;;;3.30;1.40;;;;;;;;;;4996804;28;20186;-52
2021/12/01 14:10:17;;;;;;;3.33;1.40;;;;;;;;;;5031809;28;20199;-53
2021/12/01 14:12:44;;;;;;;4.67;1.47;;;;;;;;;;5016576;28;20224;-53
2021/12/01 14:15:10;;;;;;;3.07;1.30;;;;;;;;;;5013336;28;20217;-54
2021/12/01 14:17:38;;;;;;;5.30;2.00;;;;;;;;;;5030501;28;20557;-53
2021/12/01 14:20:05;;;;;;;4.67;1.77;;;;;;;;;;5032038;28;20165;-54
2021/12/01 14:22:32;;;;;;;3.67;1.67;;;;;;;;;;5030157;28;20205;-54
2021/12/01 14:25:02;;;;;;;2.43;1.70;;;;;;;;;;5030473;28;20174;-52
2021/12/01 14:27:30;;;;;;;3.70;2.10;;;;;;;;;;5013824;28;20189;-53
2021/12/01 14:29:57;;;;;;;5.10;2.03;;;;;;;;;;5013198;28;20610;-53
2021/12/01 14:32:24;;;;;;;4.60;1.90;;;;;;;;;;5011534;28;20243;-54
2021/12/01 14:34:51;;;;;;;6.10;2.33;;;;;;;;;;5028047;28;20208;-52
2021/12/01 14:37:17;;;;;;;7.77;2.73;;;;;;;;;;5029751;28;20720;-53
2021/12/01 14:39:44;;;;;;;4.30;2.40;;;;;;;;;;5031861;28;20563;-53
2021/12/01 14:42:11;;;;;;;4.63;2.20;;;;;;;;;;5033037;28;20767;-54
2021/12/01 14:44:39;;;;;;;3.97;2.13;;;;;;;;;;4993148;28;20279;-54
2021/12/01 14:47:10;;;;;;;7.37;2.80;;;;;;;;;;5015962;28;20192;-53
2021/12/01 14:49:36;;;;;;;3.33;2.33;;;;;;;;;;5029368;28;20214;-53
2021/12/01 14:52:03;;;;;;;4.27;2.40;;;;;;;;;;5024531;28;20174;-54
2021/12/01 14:54:34;;;;;;;3.97;2.53;;;;;;;;;;5013261;28;20259;-54